Yorktown Express — WDD6127 — position and weather

sailwx.info

Track history (hours):
 
Tides and Currents Weather Stations Pressure Air Temp Water Temp Dewpoint Dewpoint Depression Visibility Wind Speed Wind Dir Waves Ship Positions

Yorktown Express

Owner: Marine Transport Management, Inc., Jacksonville, FL. More information available from US FCC via Universal Licensing System and Coast Guard Vessel Documentation Center.

Last reported at 2014-Oct-01 02:33 UTC. Time now 2014-Oct-01 20:16 UTC.
Position N 50°20' W 001°23'.

Type: Ship. MMSI: 367168650.

Date/timePositionNaut miles runAvg speedWind from/ knotsBaromVisibWave heightAir tempDewpointWater temp
2014-Oct-01 02:33N 50°20' W 001°23'1717.6
2014-Oct-01 01:33N 50°32' W 001°03'1010.0
2014-Oct-01 00:33N 50°41' W 000°57'1515.1
2014-Sep-30 23:33N 50°47' W 001°19'8 7.7
2014-Sep-30 22:33N 50°54' W 001°25'2 1.9
2014-Sep-30 21:32N 50°55' W 001°28'0 0.0
2014-Sep-30 20:32N 50°55' W 001°28'0 0.0
2014-Sep-30 19:32N 50°55' W 001°28'0 0.0
2014-Sep-30 18:32N 50°55' W 001°28'0 0.0
2014-Sep-30 17:32N 50°55' W 001°28'0 0.0
2014-Sep-30 16:32N 50°55' W 001°28'0 0.0
2014-Sep-30 15:32N 50°55' W 001°28'0 0.0
2014-Sep-30 14:32N 50°55' W 001°28'0 0.0
2014-Sep-30 13:32N 50°55' W 001°28'0 0.0
2014-Sep-30 12:32N 50°55' W 001°28'0 0.0
2014-Sep-30 11:32N 50°55' W 001°28'0 0.0
2014-Sep-30 10:32N 50°55' W 001°28'0 0.0
2014-Sep-30 09:32N 50°55' W 001°28'0 0.0
2014-Sep-30 08:29N 50°55' W 001°28'2 2.7
2014-Sep-30 07:33N 50°53' W 001°24'8 7.5
2014-Sep-30 06:34N 50°47' W 001°19'1515.0
2014-Sep-30 05:34N 50°41' W 000°57'1212.0
2014-Sep-30 04:34N 50°35' W 000°41'1919.4
2014-Sep-30 03:33N 50°32' W 000°11'1818.4
2014-Sep-30 02:34N 50°35' E 000°18'1817.6
2014-Sep-30 01:34N 50°40' E 000°44'1917.2
2014-Sep-30 00:29N 50°51' E 001°08'1718.3
2014-Sep-29 23:34N 51°02' E 001°29'2020.4
2014-Sep-29 22:33N 51°17' E 001°50'2019.6
2014-Sep-29 21:33N 51°33' E 002°09'1818.5
2014-Sep-29 20:34N 51°47' E 002°28'2217.6
2014-Sep-29 19:18N 52°04' E 002°50'1916.9
2014-Sep-29 18:11N 52°19' E 003°10'1116.7
2014-Sep-29 17:32N 52°27' E 003°20'7117.8
2014-Sep-29 13:33N 53°23' E 004°33'1817.9
2014-Sep-29 12:34N 53°33' E 004°57'1818.2
2014-Sep-29 11:34N 53°39' E 005°26'1717.5
2014-Sep-29 10:34N 53°44' E 005°54'1717.4
2014-Sep-29 09:33N 53°50' E 006°22'1817.8
2014-Sep-29 08:33N 53°54' E 006°52'2018.8
2014-Sep-29 07:30N 53°58' E 007°25'1515.7
2014-Sep-29 06:33N 53°53' E 007°49'1616.2
2014-Sep-29 05:33N 53°45' E 008°13'1514.8
2014-Sep-29 04:33N 53°35' E 008°31'0 0.2
2014-Sep-29 03:32N 53°35' E 008°32'0 0.0
2014-Sep-29 02:32N 53°35' E 008°32'0 0.0
2014-Sep-29 01:32N 53°35' E 008°32'0 0.0
2014-Sep-29 00:32N 53°35' E 008°32'0 0.0
2014-Sep-28 23:32N 53°35' E 008°32'0 0.0
2014-Sep-28 22:32N 53°35' E 008°32'0 0.0
2014-Sep-28 21:32N 53°35' E 008°32'0 0.0
2014-Sep-28 20:32N 53°35' E 008°32'0 0.0
2014-Sep-28 19:32N 53°35' E 008°32'0 0.0
2014-Sep-28 18:32N 53°35' E 008°32'0 0.0
2014-Sep-28 17:32N 53°35' E 008°32'0 0.0
2014-Sep-28 16:32N 53°35' E 008°32'0 0.0
2014-Sep-28 15:32N 53°35' E 008°32'0 0.0
2014-Sep-28 14:32N 53°35' E 008°32'0 0.0
2014-Sep-28 13:32N 53°35' E 008°32'0 0.0
2014-Sep-28 12:32N 53°35' E 008°32'0 0.0
2014-Sep-28 11:32N 53°35' E 008°32'0 0.0
2014-Sep-28 10:32N 53°35' E 008°32'0 0.0
2014-Sep-28 09:32N 53°35' E 008°32'0 0.0
2014-Sep-28 08:32N 53°35' E 008°32'0 0.0
2014-Sep-28 07:32N 53°35' E 008°32'0 0.0
2014-Sep-28 06:32N 53°35' E 008°32'0 0.0
2014-Sep-28 05:33N 53°35' E 008°32'7 6.7
2014-Sep-28 04:33N 53°39' E 008°23'1514.8
2014-Sep-28 03:33N 53°50' E 008°05'1212.5
2014-Sep-28 02:33N 53°53' E 007°45'9 9.4
2014-Sep-28 01:33N 53°54' E 007°29'1413.4
2014-Sep-28 00:32N 53°51' E 007°06'1414.5
2014-Sep-27 23:33N 53°48' E 006°43'1514.8
2014-Sep-27 22:33N 53°45' E 006°19'1717.5
2014-Sep-27 21:34N 53°39' E 005°51'1918.7
2014-Sep-27 20:34N 53°33' E 005°21'1918.7
2014-Sep-27 19:34N 53°27' E 004°52'1818.3
2014-Sep-27 18:34N 53°12' E 004°33'1919.3
2014-Sep-27 17:33N 52°55' E 004°18'1918.9
2014-Sep-27 16:33N 52°40' E 003°58'1919.2
2014-Sep-27 15:34N 52°26' E 003°37'2018.8
2014-Sep-27 14:31N 52°08' E 003°26'1616.9
2014-Sep-27 13:33N 51°52' E 003°19'1010.0
2014-Sep-27 12:34N 51°43' E 003°14'1111.1
2014-Sep-27 11:33N 51°32' E 003°07'8 8.4
2014-Sep-27 10:34N 51°24' E 003°07'1514.8
2014-Sep-27 09:33N 51°25' E 003°31'1010.2
2014-Sep-27 08:33N 51°22' E 003°46'1010.4
2014-Sep-27 07:34N 51°23' E 004°03'9 8.8
2014-Sep-27 06:34N 51°20' E 004°16'0 0.0
2014-Sep-27 05:33N 51°20' E 004°17'0 0.0
2014-Sep-27 04:34N 51°20' E 004°17'0 0.0
2014-Sep-27 03:33N 51°20' E 004°17'0 0.0
2014-Sep-27 02:33N 51°20' E 004°17'0 0.0
2014-Sep-27 01:33N 51°20' E 004°17'0 0.0
2014-Sep-27 00:33N 51°20' E 004°17'0 0.0
2014-Sep-26 23:33N 51°20' E 004°17'0 0.0
2014-Sep-26 22:33N 51°20' E 004°17'0 0.0
2014-Sep-26 21:33N 51°20' E 004°17'0 0.0
2014-Sep-26 20:33N 51°20' E 004°17'0 0.0
2014-Sep-26 19:33N 51°20' E 004°17'0 0.0
2014-Sep-26 18:33N 51°20' E 004°17'0 0.0
2014-Sep-26 17:33N 51°20' E 004°17'0 0.0
2014-Sep-26 16:33N 51°20' E 004°17'0 0.0
2014-Sep-26 15:33N 51°20' E 004°17'0 0.0
2014-Sep-26 14:33N 51°20' E 004°17'0 0.0
2014-Sep-26 13:33N 51°20' E 004°17'0 0.0
2014-Sep-26 12:33N 51°20' E 004°17'0 0.0
2014-Sep-26 11:33N 51°20' E 004°17'0 0.0
2014-Sep-26 10:33N 51°20' E 004°17'0 0.0
2014-Sep-26 09:33N 51°20' E 004°17'0 0.0
2014-Sep-26 08:33N 51°20' E 004°17'0 0.0
2014-Sep-26 07:33N 51°20' E 004°17'0 0.0
2014-Sep-26 06:33N 51°20' E 004°17'0 0.0
2014-Sep-26 05:33N 51°20' E 004°17'0 0.0
2014-Sep-26 04:34N 51°20' E 004°17'0 0.0
2014-Sep-26 03:33N 51°20' E 004°17'0 0.0
2014-Sep-26 02:34N 51°20' E 004°17'0 0.0
2014-Sep-26 01:33N 51°20' E 004°17'0 0.0
2014-Sep-26 00:33N 51°20' E 004°17'0 0.0
2014-Sep-25 23:34N 51°20' E 004°17'0 0.0
2014-Sep-25 22:33N 51°20' E 004°17'0 0.0
2014-Sep-25 21:33N 51°20' E 004°17'0 0.0
2014-Sep-25 20:34N 51°20' E 004°17'0 0.0
2014-Sep-25 19:33N 51°20' E 004°17'0 0.0
2014-Sep-25 18:33N 51°20' E 004°17'0 0.0
2014-Sep-25 17:33N 51°20' E 004°17'0 0.2
2014-Sep-25 16:34N 51°20' E 004°16'6 5.8
2014-Sep-25 15:33N 51°22' E 004°07'6 6.5
2014-Sep-25 14:33N 51°24' E 003°57'9 9.2
2014-Sep-25 13:34N 51°23' E 003°43'10 9.5
2014-Sep-25 12:33N 51°25' E 003°28'1817.4
2014-Sep-25 11:32N 51°23' E 002°59'1313.4
2014-Sep-25 10:33N 51°22' E 002°39'6 6.0
2014-Sep-25 09:32N 51°21' E 002°29'7 6.8
2014-Sep-25 08:33N 51°19' E 002°19'8 8.6
2014-Sep-25 07:33N 51°14' E 002°07'1413.7
2014-Sep-25 06:34N 51°08' E 001°48'1313.3
2014-Sep-25 05:33N 50°59' E 001°33'1414.1
2014-Sep-25 04:32N 50°46' E 001°23'1414.4
2014-Sep-25 03:33N 50°35' E 001°08'2014.6
2014-Sep-25 02:12N 50°27' E 000°39'1214.8
2014-Sep-25 01:24N 50°25' E 000°21'1314.8
2014-Sep-25 00:32N 50°21' E 000°02'68016.0
2014-Sep-23 06:00N 49°24' W 017°30'67222.4 280 / 81025.010.8 0.517.013.519.0
2014-Sep-22 00:00N 41°54' W 029°24'36430.4 230 / 101031.010.8 2.016.012.419.0
2014-Sep-21 12:00N 47°06' W 033°48'   320 / 151029.510.8 2.015.0 9.219.0
Track history (hours):
 
Tides and Currents Weather Stations Pressure Air Temp Water Temp Dewpoint Dewpoint Depression Visibility Wind Speed Wind Dir Waves Ship Positions

Yorktown Express

Owner: Marine Transport Management, Inc., Jacksonville, FL. More information available from US FCC via Universal Licensing System and Coast Guard Vessel Documentation Center.

Last reported at 2014-Oct-01 02:33 UTC. Time now 2014-Oct-01 20:16 UTC.
Position N 50°20' W 001°23'.

Type: Ship. MMSI: 367168650.

Date/timePositionNaut miles runAvg speedWind from/ knotsBaromVisibWave heightAir tempDewpointWater temp
2014-Oct-01 02:33N 50°20' W 001°23'1717.6
2014-Oct-01 01:33N 50°32' W 001°03'1010.0
2014-Oct-01 00:33N 50°41' W 000°57'1515.1
2014-Sep-30 23:33N 50°47' W 001°19'8 7.7
2014-Sep-30 22:33N 50°54' W 001°25'2 1.9
2014-Sep-30 21:32N 50°55' W 001°28'0 0.0
2014-Sep-30 20:32N 50°55' W 001°28'0 0.0
2014-Sep-30 19:32N 50°55' W 001°28'0 0.0
2014-Sep-30 18:32N 50°55' W 001°28'0 0.0
2014-Sep-30 17:32N 50°55' W 001°28'0 0.0
2014-Sep-30 16:32N 50°55' W 001°28'0 0.0
2014-Sep-30 15:32N 50°55' W 001°28'0 0.0
2014-Sep-30 14:32N 50°55' W 001°28'0 0.0
2014-Sep-30 13:32N 50°55' W 001°28'0 0.0
2014-Sep-30 12:32N 50°55' W 001°28'0 0.0
2014-Sep-30 11:32N 50°55' W 001°28'0 0.0
2014-Sep-30 10:32N 50°55' W 001°28'0 0.0
2014-Sep-30 09:32N 50°55' W 001°28'0 0.0
2014-Sep-30 08:29N 50°55' W 001°28'2 2.7
2014-Sep-30 07:33N 50°53' W 001°24'8 7.5
2014-Sep-30 06:34N 50°47' W 001°19'1515.0
2014-Sep-30 05:34N 50°41' W 000°57'1212.0
2014-Sep-30 04:34N 50°35' W 000°41'1919.4
2014-Sep-30 03:33N 50°32' W 000°11'1818.4
2014-Sep-30 02:34N 50°35' E 000°18'1817.6
2014-Sep-30 01:34N 50°40' E 000°44'1917.2
2014-Sep-30 00:29N 50°51' E 001°08'1718.3
2014-Sep-29 23:34N 51°02' E 001°29'2020.4
2014-Sep-29 22:33N 51°17' E 001°50'2019.6
2014-Sep-29 21:33N 51°33' E 002°09'1818.5
2014-Sep-29 20:34N 51°47' E 002°28'2217.6
2014-Sep-29 19:18N 52°04' E 002°50'1916.9
2014-Sep-29 18:11N 52°19' E 003°10'1116.7
2014-Sep-29 17:32N 52°27' E 003°20'7117.8
2014-Sep-29 13:33N 53°23' E 004°33'1817.9
2014-Sep-29 12:34N 53°33' E 004°57'1818.2
2014-Sep-29 11:34N 53°39' E 005°26'1717.5
2014-Sep-29 10:34N 53°44' E 005°54'1717.4
2014-Sep-29 09:33N 53°50' E 006°22'1817.8
2014-Sep-29 08:33N 53°54' E 006°52'2018.8
2014-Sep-29 07:30N 53°58' E 007°25'1515.7
2014-Sep-29 06:33N 53°53' E 007°49'1616.2
2014-Sep-29 05:33N 53°45' E 008°13'1514.8
2014-Sep-29 04:33N 53°35' E 008°31'0 0.2
2014-Sep-29 03:32N 53°35' E 008°32'0 0.0
2014-Sep-29 02:32N 53°35' E 008°32'0 0.0
2014-Sep-29 01:32N 53°35' E 008°32'0 0.0
2014-Sep-29 00:32N 53°35' E 008°32'0 0.0
2014-Sep-28 23:32N 53°35' E 008°32'0 0.0
2014-Sep-28 22:32N 53°35' E 008°32'0 0.0
2014-Sep-28 21:32N 53°35' E 008°32'0 0.0
2014-Sep-28 20:32N 53°35' E 008°32'0 0.0
2014-Sep-28 19:32N 53°35' E 008°32'0 0.0
2014-Sep-28 18:32N 53°35' E 008°32'0 0.0
2014-Sep-28 17:32N 53°35' E 008°32'0 0.0
2014-Sep-28 16:32N 53°35' E 008°32'0 0.0
2014-Sep-28 15:32N 53°35' E 008°32'0 0.0
2014-Sep-28 14:32N 53°35' E 008°32'0 0.0
2014-Sep-28 13:32N 53°35' E 008°32'0 0.0
2014-Sep-28 12:32N 53°35' E 008°32'0 0.0
2014-Sep-28 11:32N 53°35' E 008°32'0 0.0
2014-Sep-28 10:32N 53°35' E 008°32'0 0.0
2014-Sep-28 09:32N 53°35' E 008°32'0 0.0
2014-Sep-28 08:32N 53°35' E 008°32'0 0.0
2014-Sep-28 07:32N 53°35' E 008°32'0 0.0
2014-Sep-28 06:32N 53°35' E 008°32'0 0.0
2014-Sep-28 05:33N 53°35' E 008°32'7 6.7
2014-Sep-28 04:33N 53°39' E 008°23'1514.8
2014-Sep-28 03:33N 53°50' E 008°05'1212.5
2014-Sep-28 02:33N 53°53' E 007°45'9 9.4
2014-Sep-28 01:33N 53°54' E 007°29'1413.4
2014-Sep-28 00:32N 53°51' E 007°06'1414.5
2014-Sep-27 23:33N 53°48' E 006°43'1514.8
2014-Sep-27 22:33N 53°45' E 006°19'1717.5
2014-Sep-27 21:34N 53°39' E 005°51'1918.7
2014-Sep-27 20:34N 53°33' E 005°21'1918.7
2014-Sep-27 19:34N 53°27' E 004°52'1818.3
2014-Sep-27 18:34N 53°12' E 004°33'1919.3
2014-Sep-27 17:33N 52°55' E 004°18'1918.9
2014-Sep-27 16:33N 52°40' E 003°58'1919.2
2014-Sep-27 15:34N 52°26' E 003°37'2018.8
2014-Sep-27 14:31N 52°08' E 003°26'1616.9
2014-Sep-27 13:33N 51°52' E 003°19'1010.0
2014-Sep-27 12:34N 51°43' E 003°14'1111.1
2014-Sep-27 11:33N 51°32' E 003°07'8 8.4
2014-Sep-27 10:34N 51°24' E 003°07'1514.8
2014-Sep-27 09:33N 51°25' E 003°31'1010.2
2014-Sep-27 08:33N 51°22' E 003°46'1010.4
2014-Sep-27 07:34N 51°23' E 004°03'9 8.8
2014-Sep-27 06:34N 51°20' E 004°16'0 0.0
2014-Sep-27 05:33N 51°20' E 004°17'0 0.0
2014-Sep-27 04:34N 51°20' E 004°17'0 0.0
2014-Sep-27 03:33N 51°20' E 004°17'0 0.0
2014-Sep-27 02:33N 51°20' E 004°17'0 0.0
2014-Sep-27 01:33N 51°20' E 004°17'0 0.0
2014-Sep-27 00:33N 51°20' E 004°17'0 0.0
2014-Sep-26 23:33N 51°20' E 004°17'0 0.0
2014-Sep-26 22:33N 51°20' E 004°17'0 0.0
2014-Sep-26 21:33N 51°20' E 004°17'0 0.0
2014-Sep-26 20:33N 51°20' E 004°17'0 0.0
2014-Sep-26 19:33N 51°20' E 004°17'0 0.0
2014-Sep-26 18:33N 51°20' E 004°17'0 0.0
2014-Sep-26 17:33N 51°20' E 004°17'0 0.0
2014-Sep-26 16:33N 51°20' E 004°17'0 0.0
2014-Sep-26 15:33N 51°20' E 004°17'0 0.0
2014-Sep-26 14:33N 51°20' E 004°17'0 0.0
2014-Sep-26 13:33N 51°20' E 004°17'0 0.0
2014-Sep-26 12:33N 51°20' E 004°17'0 0.0
2014-Sep-26 11:33N 51°20' E 004°17'0 0.0
2014-Sep-26 10:33N 51°20' E 004°17'0 0.0
2014-Sep-26 09:33N 51°20' E 004°17'0 0.0
2014-Sep-26 08:33N 51°20' E 004°17'0 0.0
2014-Sep-26 07:33N 51°20' E 004°17'0 0.0
2014-Sep-26 06:33N 51°20' E 004°17'0 0.0
2014-Sep-26 05:33N 51°20' E 004°17'0 0.0
2014-Sep-26 04:34N 51°20' E 004°17'0 0.0
2014-Sep-26 03:33N 51°20' E 004°17'0 0.0
2014-Sep-26 02:34N 51°20' E 004°17'0 0.0
2014-Sep-26 01:33N 51°20' E 004°17'0 0.0
2014-Sep-26 00:33N 51°20' E 004°17'0 0.0
2014-Sep-25 23:34N 51°20' E 004°17'0 0.0
2014-Sep-25 22:33N 51°20' E 004°17'0 0.0
2014-Sep-25 21:33N 51°20' E 004°17'0 0.0
2014-Sep-25 20:34N 51°20' E 004°17'0 0.0
2014-Sep-25 19:33N 51°20' E 004°17'0 0.0
2014-Sep-25 18:33N 51°20' E 004°17'0 0.0
2014-Sep-25 17:33N 51°20' E 004°17'0 0.2
2014-Sep-25 16:34N 51°20' E 004°16'6 5.8
2014-Sep-25 15:33N 51°22' E 004°07'6 6.5
2014-Sep-25 14:33N 51°24' E 003°57'9 9.2
2014-Sep-25 13:34N 51°23' E 003°43'10 9.5
2014-Sep-25 12:33N 51°25' E 003°28'1817.4
2014-Sep-25 11:32N 51°23' E 002°59'1313.4
2014-Sep-25 10:33N 51°22' E 002°39'6 6.0
2014-Sep-25 09:32N 51°21' E 002°29'7 6.8
2014-Sep-25 08:33N 51°19' E 002°19'8 8.6
2014-Sep-25 07:33N 51°14' E 002°07'1413.7
2014-Sep-25 06:34N 51°08' E 001°48'1313.3
2014-Sep-25 05:33N 50°59' E 001°33'1414.1
2014-Sep-25 04:32N 50°46' E 001°23'1414.4
2014-Sep-25 03:33N 50°35' E 001°08'2014.6
2014-Sep-25 02:12N 50°27' E 000°39'1214.8
2014-Sep-25 01:24N 50°25' E 000°21'1314.8
2014-Sep-25 00:32N 50°21' E 000°02'68016.0
2014-Sep-23 06:00N 49°24' W 017°30'67222.4 280 / 81025.010.8 0.517.013.519.0
2014-Sep-22 00:00N 41°54' W 029°24'36430.4 230 / 101031.010.8 2.016.012.419.0
2014-Sep-21 12:00N 47°06' W 033°48'   320 / 151029.510.8 2.015.0 9.219.0

Dump ship's entire track history